Grande-Vallee, Canada
Current Conditions -  °F | °C
As of 2:00 AM on Friday 31 Oct 2014 (Local Time) from CYGP Reporting Station
Few Clouds Few Clouds  
Wind Chill: 25°   Ceiling: Unl
Heat Index: 30°   Visibility: 15mi
Dew Point: 27°   Wind: 5mph
Humidity: 86%   Direction: 310°NW
Pressure: 29.88"   Gusts: NA
Location:  49.22°N, 65.13°W
Report Text: CYGP 310600Z 31004KT 15SM FEW025 M01/M03 A2988 RMK SC1 SLP121
Loading
Personal Weather Stations






























Interactive Weather Map
Tropical Storm Tracking
New forecast layout! Learn more

10-Day Weather Forecast

Advertisements
Track Severe Weather on mobile